sensor_id;sensor_type;location;lat;lon;timestamp;P1;durP1;ratioP1;P2;durP2;ratioP2
12577;SDS011;6354;51.026;8.968;2022-11-15T00:01:11;185.90;;;54.60;;
12577;SDS011;6354;51.026;8.968;2022-11-15T00:03:44;65.67;;;43.50;;
12577;SDS011;6354;51.026;8.968;2022-11-15T00:06:12;526.07;;;155.47;;
12577;SDS011;6354;51.026;8.968;2022-11-15T00:08:40;737.67;;;193.57;;
12577;SDS011;6354;51.026;8.968;2022-11-15T00:11:09;392.67;;;132.03;;
12577;SDS011;6354;51.026;8.968;2022-11-15T00:13:40;1300.60;;;400.77;;
12577;SDS011;6354;51.026;8.968;2022-11-15T00:16:08;1102.77;;;380.70;;
12577;SDS011;6354;51.026;8.968;2022-11-15T00:18:37;903.67;;;296.10;;
12577;SDS011;6354;51.026;8.968;2022-11-15T00:21:06;410.97;;;108.03;;
12577;SDS011;6354;51.026;8.968;2022-11-15T00:23:35;730.07;;;262.37;;
12577;SDS011;6354;51.026;8.968;2022-11-15T00:26:03;1174.63;;;329.50;;
12577;SDS011;6354;51.026;8.968;2022-11-15T00:28:31;784.20;;;243.07;;
12577;SDS011;6354;51.026;8.968;2022-11-15T00:31:01;1020.10;;;253.30;;
12577;SDS011;6354;51.026;8.968;2022-11-15T00:33:30;156.33;;;54.83;;
12577;SDS011;6354;51.026;8.968;2022-11-15T00:35:59;393.80;;;84.30;;
12577;SDS011;6354;51.026;8.968;2022-11-15T00:38:30;1054.73;;;241.70;;
12577;SDS011;6354;51.026;8.968;2022-11-15T00:40:59;792.73;;;178.50;;
12577;SDS011;6354;51.026;8.968;2022-11-15T00:43:34;1490.90;;;261.40;;
12577;SDS011;6354;51.026;8.968;2022-11-15T00:46:04;757.87;;;158.70;;
12577;SDS011;6354;51.026;8.968;2022-11-15T00:48:34;1303.97;;;220.77;;
12577;SDS011;6354;51.026;8.968;2022-11-15T00:51:02;1204.73;;;275.47;;
12577;SDS011;6354;51.026;8.968;2022-11-15T00:53:30;1999.90;;;468.50;;
12577;SDS011;6354;51.026;8.968;2022-11-15T00:55:59;834.67;;;154.93;;
12577;SDS011;6354;51.026;8.968;2022-11-15T00:58:27;1044.63;;;169.10;;
12577;SDS011;6354;51.026;8.968;2022-11-15T01:00:55;1427.60;;;266.90;;
12577;SDS011;6354;51.026;8.968;2022-11-15T01:03:24;1473.40;;;259.50;;
12577;SDS011;6354;51.026;8.968;2022-11-15T01:05:53;727.57;;;192.70;;
12577;SDS011;6354;51.026;8.968;2022-11-15T01:08:21;1618.30;;;351.80;;
12577;SDS011;6354;51.026;8.968;2022-11-15T01:10:49;1283.83;;;245.67;;
12577;SDS011;6354;51.026;8.968;2022-11-15T01:13:17;1309.97;;;207.90;;
12577;SDS011;6354;51.026;8.968;2022-11-15T01:15:45;1817.60;;;331.97;;
12577;SDS011;6354;51.026;8.968;2022-11-15T01:18:13;1572.97;;;261.83;;
12577;SDS011;6354;51.026;8.968;2022-11-15T01:20:42;1138.13;;;205.57;;
12577;SDS011;6354;51.026;8.968;2022-11-15T01:23:10;1010.53;;;210.13;;
12577;SDS011;6354;51.026;8.968;2022-11-15T01:25:38;987.63;;;268.37;;
12577;SDS011;6354;51.026;8.968;2022-11-15T01:28:06;900.87;;;183.20;;
12577;SDS011;6354;51.026;8.968;2022-11-15T01:30:35;295.37;;;111.07;;
12577;SDS011;6354;51.026;8.968;2022-11-15T01:33:03;210.67;;;75.37;;
12577;SDS011;6354;51.026;8.968;2022-11-15T01:35:31;878.23;;;220.20;;
12577;SDS011;6354;51.026;8.968;2022-11-15T01:38:01;149.20;;;48.67;;
12577;SDS011;6354;51.026;8.968;2022-11-15T01:40:29;927.43;;;255.50;;
12577;SDS011;6354;51.026;8.968;2022-11-15T01:42:57;446.13;;;162.43;;
12577;SDS011;6354;51.026;8.968;2022-11-15T01:45:25;238.53;;;89.97;;
12577;SDS011;6354;51.026;8.968;2022-11-15T01:47:53;507.83;;;135.13;;
12577;SDS011;6354;51.026;8.968;2022-11-15T01:50:23;291.97;;;80.47;;
12577;SDS011;6354;51.026;8.968;2022-11-15T01:52:54;292.73;;;95.30;;
12577;SDS011;6354;51.026;8.968;2022-11-15T01:55:24;282.50;;;82.63;;
12577;SDS011;6354;51.026;8.968;2022-11-15T01:57:55;209.43;;;76.97;;
12577;SDS011;6354;51.026;8.968;2022-11-15T02:00:27;67.90;;;28.43;;
12577;SDS011;6354;51.026;8.968;2022-11-15T02:02:56;48.47;;;24.47;;
12577;SDS011;6354;51.026;8.968;2022-11-15T02:05:24;186.20;;;87.97;;
12577;SDS011;6354;51.026;8.968;2022-11-15T02:07:53;198.83;;;88.73;;
12577;SDS011;6354;51.026;8.968;2022-11-15T02:10:24;915.13;;;293.67;;
12577;SDS011;6354;51.026;8.968;2022-11-15T02:12:52;66.93;;;36.33;;
12577;SDS011;6354;51.026;8.968;2022-11-15T02:15:22;946.90;;;309.40;;
12577;SDS011;6354;51.026;8.968;2022-11-15T02:18:01;598.50;;;144.70;;
12577;SDS011;6354;51.026;8.968;2022-11-15T02:20:41;205.73;;;54.97;;
12577;SDS011;6354;51.026;8.968;2022-11-15T02:23:31;292.47;;;90.07;;
12577;SDS011;6354;51.026;8.968;2022-11-15T02:26:36;39.93;;;23.37;;
12577;SDS011;6354;51.026;8.968;2022-11-15T02:29:26;761.67;;;261.10;;
12577;SDS011;6354;51.026;8.968;2022-11-15T02:32:05;468.77;;;199.10;;
12577;SDS011;6354;51.026;8.968;2022-11-15T02:34:42;482.73;;;152.30;;
12577;SDS011;6354;51.026;8.968;2022-11-15T02:37:25;664.10;;;236.80;;
12577;SDS011;6354;51.026;8.968;2022-11-15T02:39:59;791.67;;;283.33;;
12577;SDS011;6354;51.026;8.968;2022-11-15T02:42:35;513.50;;;157.30;;
12577;SDS011;6354;51.026;8.968;2022-11-15T02:45:28;947.10;;;317.07;;
12577;SDS011;6354;51.026;8.968;2022-11-15T02:48:00;207.23;;;58.63;;
12577;SDS011;6354;51.026;8.968;2022-11-15T02:50:29;912.80;;;245.17;;
12577;SDS011;6354;51.026;8.968;2022-11-15T02:53:00;600.13;;;160.80;;
12577;SDS011;6354;51.026;8.968;2022-11-15T02:55:29;302.47;;;75.33;;
12577;SDS011;6354;51.026;8.968;2022-11-15T02:58:02;833.40;;;225.87;;
12577;SDS011;6354;51.026;8.968;2022-11-15T03:00:44;1052.00;;;254.20;;
12577;SDS011;6354;51.026;8.968;2022-11-15T03:03:27;684.67;;;169.87;;
12577;SDS011;6354;51.026;8.968;2022-11-15T03:06:11;269.63;;;76.57;;
12577;SDS011;6354;51.026;8.968;2022-11-15T03:08:50;624.00;;;158.43;;
12577;SDS011;6354;51.026;8.968;2022-11-15T03:11:23;1375.57;;;264.57;;
12577;SDS011;6354;51.026;8.968;2022-11-15T03:13:53;689.77;;;175.00;;
12577;SDS011;6354;51.026;8.968;2022-11-15T03:16:26;432.70;;;101.93;;
12577;SDS011;6354;51.026;8.968;2022-11-15T03:19:01;721.73;;;169.57;;
12577;SDS011;6354;51.026;8.968;2022-11-15T03:21:32;981.30;;;297.60;;
12577;SDS011;6354;51.026;8.968;2022-11-15T03:24:05;913.43;;;238.40;;
12577;SDS011;6354;51.026;8.968;2022-11-15T03:26:35;467.13;;;110.90;;
12577;SDS011;6354;51.026;8.968;2022-11-15T03:29:08;544.30;;;129.03;;
12577;SDS011;6354;51.026;8.968;2022-11-15T03:31:41;561.13;;;161.93;;
12577;SDS011;6354;51.026;8.968;2022-11-15T03:34:20;1326.47;;;344.13;;
12577;SDS011;6354;51.026;8.968;2022-11-15T03:36:53;657.73;;;162.70;;
12577;SDS011;6354;51.026;8.968;2022-11-15T03:39:22;752.87;;;229.63;;
12577;SDS011;6354;51.026;8.968;2022-11-15T03:41:54;588.77;;;173.33;;
12577;SDS011;6354;51.026;8.968;2022-11-15T03:44:31;624.83;;;155.07;;
12577;SDS011;6354;51.026;8.968;2022-11-15T03:47:06;262.87;;;80.93;;
12577;SDS011;6354;51.026;8.968;2022-11-15T03:49:40;559.87;;;178.37;;
12577;SDS011;6354;51.026;8.968;2022-11-15T03:52:12;643.53;;;166.47;;
12577;SDS011;6354;51.026;8.968;2022-11-15T03:54:47;494.60;;;145.13;;
12577;SDS011;6354;51.026;8.968;2022-11-15T03:57:16;760.20;;;179.40;;
12577;SDS011;6354;51.026;8.968;2022-11-15T03:59:44;460.23;;;119.17;;
12577;SDS011;6354;51.026;8.968;2022-11-15T04:02:13;527.27;;;114.17;;
12577;SDS011;6354;51.026;8.968;2022-11-15T04:04:42;168.50;;;53.43;;
12577;SDS011;6354;51.026;8.968;2022-11-15T04:07:11;938.97;;;235.50;;
12577;SDS011;6354;51.026;8.968;2022-11-15T04:09:39;429.77;;;82.80;;
12577;SDS011;6354;51.026;8.968;2022-11-15T04:12:21;1122.13;;;326.03;;
12577;SDS011;6354;51.026;8.968;2022-11-15T04:14:57;897.20;;;188.90;;
12577;SDS011;6354;51.026;8.968;2022-11-15T04:17:36;264.43;;;73.97;;
12577;SDS011;6354;51.026;8.968;2022-11-15T04:20:08;197.87;;;53.40;;
12577;SDS011;6354;51.026;8.968;2022-11-15T04:22:55;353.30;;;89.40;;
12577;SDS011;6354;51.026;8.968;2022-11-15T04:25:41;1193.83;;;313.47;;
12577;SDS011;6354;51.026;8.968;2022-11-15T04:28:10;269.23;;;81.63;;
12577;SDS011;6354;51.026;8.968;2022-11-15T04:30:39;824.27;;;254.87;;
12577;SDS011;6354;51.026;8.968;2022-11-15T04:33:07;1084.67;;;228.37;;
12577;SDS011;6354;51.026;8.968;2022-11-15T04:35:36;1376.23;;;320.80;;
12577;SDS011;6354;51.026;8.968;2022-11-15T04:38:06;705.90;;;160.50;;
12577;SDS011;6354;51.026;8.968;2022-11-15T04:40:34;387.47;;;95.93;;
12577;SDS011;6354;51.026;8.968;2022-11-15T04:43:03;732.80;;;176.53;;
12577;SDS011;6354;51.026;8.968;2022-11-15T04:45:31;967.70;;;241.80;;
12577;SDS011;6354;51.026;8.968;2022-11-15T04:48:00;1999.90;;;411.27;;
12577;SDS011;6354;51.026;8.968;2022-11-15T04:50:27;1994.23;;;387.60;;
12577;SDS011;6354;51.026;8.968;2022-11-15T04:52:57;1387.27;;;320.17;;
12577;SDS011;6354;51.026;8.968;2022-11-15T04:55:25;1378.07;;;235.83;;
12577;SDS011;6354;51.026;8.968;2022-11-15T04:57:59;877.17;;;181.37;;
12577;SDS011;6354;51.026;8.968;2022-11-15T05:00:28;1725.83;;;316.97;;
12577;SDS011;6354;51.026;8.968;2022-11-15T05:02:57;1033.47;;;208.50;;
12577;SDS011;6354;51.026;8.968;2022-11-15T05:05:42;1167.13;;;321.37;;
12577;SDS011;6354;51.026;8.968;2022-11-15T05:08:12;1999.90;;;365.87;;
12577;SDS011;6354;51.026;8.968;2022-11-15T05:10:40;1999.90;;;498.60;;
12577;SDS011;6354;51.026;8.968;2022-11-15T05:13:08;929.73;;;212.60;;
12577;SDS011;6354;51.026;8.968;2022-11-15T05:15:36;1465.30;;;316.43;;
12577;SDS011;6354;51.026;8.968;2022-11-15T05:18:04;1021.70;;;199.13;;
12577;SDS011;6354;51.026;8.968;2022-11-15T05:20:32;1706.50;;;325.47;;
12577;SDS011;6354;51.026;8.968;2022-11-15T05:23:00;1228.53;;;284.27;;
12577;SDS011;6354;51.026;8.968;2022-11-15T05:25:29;996.73;;;229.83;;
12577;SDS011;6354;51.026;8.968;2022-11-15T05:27:57;1372.07;;;259.57;;
12577;SDS011;6354;51.026;8.968;2022-11-15T05:30:25;1338.83;;;305.07;;
12577;SDS011;6354;51.026;8.968;2022-11-15T05:32:53;1937.93;;;365.97;;
12577;SDS011;6354;51.026;8.968;2022-11-15T05:35:25;1774.63;;;448.03;;
12577;SDS011;6354;51.026;8.968;2022-11-15T05:37:56;1999.90;;;405.10;;
12577;SDS011;6354;51.026;8.968;2022-11-15T05:40:25;1099.33;;;230.60;;
12577;SDS011;6354;51.026;8.968;2022-11-15T05:42:55;1610.63;;;313.03;;
12577;SDS011;6354;51.026;8.968;2022-11-15T05:45:24;1276.53;;;315.10;;
12577;SDS011;6354;51.026;8.968;2022-11-15T05:47:52;993.23;;;270.67;;
12577;SDS011;6354;51.026;8.968;2022-11-15T05:50:22;1318.83;;;276.17;;
12577;SDS011;6354;51.026;8.968;2022-11-15T05:52:51;1272.23;;;252.43;;
12577;SDS011;6354;51.026;8.968;2022-11-15T05:55:19;1351.20;;;241.53;;
12577;SDS011;6354;51.026;8.968;2022-11-15T05:57:47;848.17;;;213.77;;
12577;SDS011;6354;51.026;8.968;2022-11-15T06:00:17;1321.00;;;240.87;;
12577;SDS011;6354;51.026;8.968;2022-11-15T06:02:46;914.73;;;166.10;;
12577;SDS011;6354;51.026;8.968;2022-11-15T06:05:14;674.63;;;171.97;;
12577;SDS011;6354;51.026;8.968;2022-11-15T06:07:42;363.93;;;83.50;;
12577;SDS011;6354;51.026;8.968;2022-11-15T06:10:10;217.17;;;52.40;;
12577;SDS011;6354;51.026;8.968;2022-11-15T06:12:38;531.13;;;186.30;;
12577;SDS011;6354;51.026;8.968;2022-11-15T06:15:07;212.73;;;58.83;;
12577;SDS011;6354;51.026;8.968;2022-11-15T06:17:37;549.00;;;122.77;;
12577;SDS011;6354;51.026;8.968;2022-11-15T06:20:05;561.00;;;140.87;;
12577;SDS011;6354;51.026;8.968;2022-11-15T06:22:34;806.10;;;205.53;;
12577;SDS011;6354;51.026;8.968;2022-11-15T06:25:02;542.17;;;103.17;;
12577;SDS011;6354;51.026;8.968;2022-11-15T06:27:31;83.07;;;38.20;;
12577;SDS011;6354;51.026;8.968;2022-11-15T06:29:59;255.20;;;63.37;;
12577;SDS011;6354;51.026;8.968;2022-11-15T06:32:28;453.70;;;142.67;;
12577;SDS011;6354;51.026;8.968;2022-11-15T06:34:58;325.00;;;83.53;;
12577;SDS011;6354;51.026;8.968;2022-11-15T06:37:26;103.77;;;39.03;;
12577;SDS011;6354;51.026;8.968;2022-11-15T06:39:54;332.83;;;88.37;;
12577;SDS011;6354;51.026;8.968;2022-11-15T06:42:22;133.07;;;53.17;;
12577;SDS011;6354;51.026;8.968;2022-11-15T06:44:50;520.93;;;146.23;;
12577;SDS011;6354;51.026;8.968;2022-11-15T06:47:18;373.23;;;99.83;;
12577;SDS011;6354;51.026;8.968;2022-11-15T06:49:46;87.60;;;44.17;;
12577;SDS011;6354;51.026;8.968;2022-11-15T06:52:15;571.60;;;179.73;;
12577;SDS011;6354;51.026;8.968;2022-11-15T06:54:44;39.43;;;29.50;;
12577;SDS011;6354;51.026;8.968;2022-11-15T06:57:12;270.60;;;113.93;;
12577;SDS011;6354;51.026;8.968;2022-11-15T06:59:40;341.90;;;135.03;;
12577;SDS011;6354;51.026;8.968;2022-11-15T07:02:11;37.63;;;27.57;;
12577;SDS011;6354;51.026;8.968;2022-11-15T07:04:40;223.70;;;84.50;;
12577;SDS011;6354;51.026;8.968;2022-11-15T07:07:09;26.63;;;21.60;;
12577;SDS011;6354;51.026;8.968;2022-11-15T07:09:38;152.33;;;60.60;;
12577;SDS011;6354;51.026;8.968;2022-11-15T07:12:06;278.70;;;82.17;;
12577;SDS011;6354;51.026;8.968;2022-11-15T07:14:34;235.17;;;74.27;;
12577;SDS011;6354;51.026;8.968;2022-11-15T07:17:03;416.30;;;111.67;;
12577;SDS011;6354;51.026;8.968;2022-11-15T07:19:32;17.27;;;13.97;;
12577;SDS011;6354;51.026;8.968;2022-11-15T07:22:00;634.90;;;155.50;;
12577;SDS011;6354;51.026;8.968;2022-11-15T07:24:28;130.90;;;37.20;;
12577;SDS011;6354;51.026;8.968;2022-11-15T07:26:57;263.13;;;99.10;;
12577;SDS011;6354;51.026;8.968;2022-11-15T07:29:26;933.07;;;265.13;;
12577;SDS011;6354;51.026;8.968;2022-11-15T07:31:54;29.57;;;17.83;;
12577;SDS011;6354;51.026;8.968;2022-11-15T07:34:22;104.40;;;41.43;;
12577;SDS011;6354;51.026;8.968;2022-11-15T07:36:51;914.50;;;263.40;;
12577;SDS011;6354;51.026;8.968;2022-11-15T07:39:19;57.30;;;38.33;;
12577;SDS011;6354;51.026;8.968;2022-11-15T07:41:47;482.00;;;147.67;;
12577;SDS011;6354;51.026;8.968;2022-11-15T07:44:17;238.00;;;71.07;;
12577;SDS011;6354;51.026;8.968;2022-11-15T07:46:45;258.67;;;90.43;;
12577;SDS011;6354;51.026;8.968;2022-11-15T07:49:13;1033.60;;;370.37;;
12577;SDS011;6354;51.026;8.968;2022-11-15T07:51:41;863.27;;;252.90;;
12577;SDS011;6354;51.026;8.968;2022-11-15T07:54:09;420.00;;;128.27;;
12577;SDS011;6354;51.026;8.968;2022-11-15T07:56:37;184.70;;;67.83;;
12577;SDS011;6354;51.026;8.968;2022-11-15T07:59:05;1056.33;;;286.93;;
12577;SDS011;6354;51.026;8.968;2022-11-15T08:01:34;884.70;;;254.40;;
12577;SDS011;6354;51.026;8.968;2022-11-15T08:04:03;638.00;;;219.90;;
12577;SDS011;6354;51.026;8.968;2022-11-15T08:06:31;406.50;;;122.03;;
12577;SDS011;6354;51.026;8.968;2022-11-15T08:08:59;191.10;;;68.07;;
12577;SDS011;6354;51.026;8.968;2022-11-15T08:11:27;591.73;;;142.00;;
12577;SDS011;6354;51.026;8.968;2022-11-15T08:13:55;802.50;;;262.60;;
12577;SDS011;6354;51.026;8.968;2022-11-15T08:16:23;891.63;;;265.77;;
12577;SDS011;6354;51.026;8.968;2022-11-15T08:18:53;1079.67;;;227.47;;
12577;SDS011;6354;51.026;8.968;2022-11-15T08:21:21;344.47;;;102.03;;
12577;SDS011;6354;51.026;8.968;2022-11-15T08:23:50;829.80;;;205.27;;
12577;SDS011;6354;51.026;8.968;2022-11-15T08:26:18;1329.40;;;369.47;;
12577;SDS011;6354;51.026;8.968;2022-11-15T08:28:46;216.43;;;59.30;;
12577;SDS011;6354;51.026;8.968;2022-11-15T08:31:14;1999.90;;;673.73;;
12577;SDS011;6354;51.026;8.968;2022-11-15T08:33:45;1277.00;;;329.87;;
12577;SDS011;6354;51.026;8.968;2022-11-15T08:36:15;1677.70;;;568.13;;
12577;SDS011;6354;51.026;8.968;2022-11-15T08:38:44;939.07;;;220.07;;
12577;SDS011;6354;51.026;8.968;2022-11-15T08:41:13;1504.03;;;370.47;;
12577;SDS011;6354;51.026;8.968;2022-11-15T08:43:44;826.27;;;180.07;;
12577;SDS011;6354;51.026;8.968;2022-11-15T08:46:12;728.10;;;234.33;;
12577;SDS011;6354;51.026;8.968;2022-11-15T08:48:41;1280.10;;;376.83;;
12577;SDS011;6354;51.026;8.968;2022-11-15T08:51:09;1378.83;;;291.00;;
12577;SDS011;6354;51.026;8.968;2022-11-15T08:53:38;1134.90;;;257.57;;
12577;SDS011;6354;51.026;8.968;2022-11-15T08:56:06;1198.63;;;295.73;;
12577;SDS011;6354;51.026;8.968;2022-11-15T08:58:35;1477.80;;;313.00;;
12577;SDS011;6354;51.026;8.968;2022-11-15T09:01:04;1207.80;;;289.40;;
12577;SDS011;6354;51.026;8.968;2022-11-15T09:03:32;746.47;;;228.83;;
12577;SDS011;6354;51.026;8.968;2022-11-15T09:06:00;1999.90;;;568.07;;
12577;SDS011;6354;51.026;8.968;2022-11-15T09:08:29;1859.73;;;457.37;;
12577;SDS011;6354;51.026;8.968;2022-11-15T09:11:14;1085.80;;;286.97;;
12577;SDS011;6354;51.026;8.968;2022-11-15T09:13:46;1859.10;;;383.43;;
12577;SDS011;6354;51.026;8.968;2022-11-15T09:16:14;1675.77;;;469.33;;
12577;SDS011;6354;51.026;8.968;2022-11-15T09:18:42;1735.13;;;492.37;;
12577;SDS011;6354;51.026;8.968;2022-11-15T09:21:10;733.13;;;195.33;;
12577;SDS011;6354;51.026;8.968;2022-11-15T09:23:38;1982.47;;;501.17;;
12577;SDS011;6354;51.026;8.968;2022-11-15T09:26:07;1269.00;;;326.10;;
12577;SDS011;6354;51.026;8.968;2022-11-15T09:28:36;1999.90;;;683.20;;
12577;SDS011;6354;51.026;8.968;2022-11-15T09:31:07;1999.90;;;532.63;;
12577;SDS011;6354;51.026;8.968;2022-11-15T09:33:36;1999.90;;;547.20;;
12577;SDS011;6354;51.026;8.968;2022-11-15T09:36:05;1968.93;;;521.43;;
12577;SDS011;6354;51.026;8.968;2022-11-15T09:38:34;1999.90;;;571.33;;
12577;SDS011;6354;51.026;8.968;2022-11-15T09:44:10;1999.90;;;544.90;;
12577;SDS011;6354;51.026;8.968;2022-11-15T09:46:56;1825.50;;;409.47;;
12577;SDS011;6354;51.026;8.968;2022-11-15T09:49:30;1999.90;;;528.73;;
12577;SDS011;6354;51.026;8.968;2022-11-15T09:51:59;1999.90;;;555.63;;
12577;SDS011;6354;51.026;8.968;2022-11-15T09:54:28;1891.47;;;421.43;;
12577;SDS011;6354;51.026;8.968;2022-11-15T09:57:20;1962.57;;;451.77;;
12577;SDS011;6354;51.026;8.968;2022-11-15T09:59:54;1959.23;;;465.57;;
12577;SDS011;6354;51.026;8.968;2022-11-15T10:02:51;1886.40;;;345.07;;
12577;SDS011;6354;51.026;8.968;2022-11-15T10:05:37;1292.30;;;293.60;;
12577;SDS011;6354;51.026;8.968;2022-11-15T10:08:12;1006.37;;;230.47;;
12577;SDS011;6354;51.026;8.968;2022-11-15T10:11:00;1999.90;;;492.43;;
12577;SDS011;6354;51.026;8.968;2022-11-15T10:13:51;1970.33;;;403.43;;
12577;SDS011;6354;51.026;8.968;2022-11-15T10:19:28;1999.90;;;618.43;;
12577;SDS011;6354;51.026;8.968;2022-11-15T10:22:05;1999.90;;;571.13;;
12577;SDS011;6354;51.026;8.968;2022-11-15T10:24:46;1999.90;;;506.37;;
12577;SDS011;6354;51.026;8.968;2022-11-15T10:27:15;1970.50;;;403.97;;
12577;SDS011;6354;51.026;8.968;2022-11-15T10:29:45;1999.90;;;603.57;;
12577;SDS011;6354;51.026;8.968;2022-11-15T10:32:17;1999.90;;;646.43;;
12577;SDS011;6354;51.026;8.968;2022-11-15T10:34:47;1999.90;;;640.00;;
12577;SDS011;6354;51.026;8.968;2022-11-15T10:37:26;1999.90;;;576.40;;
12577;SDS011;6354;51.026;8.968;2022-11-15T10:40:05;1999.90;;;891.00;;
12577;SDS011;6354;51.026;8.968;2022-11-15T10:42:34;1999.90;;;582.53;;
12577;SDS011;6354;51.026;8.968;2022-11-15T10:45:04;1999.90;;;780.73;;
12577;SDS011;6354;51.026;8.968;2022-11-15T10:47:53;1999.90;;;759.93;;
12577;SDS011;6354;51.026;8.968;2022-11-15T10:50:26;1999.90;;;536.90;;
12577;SDS011;6354;51.026;8.968;2022-11-15T10:52:56;1999.90;;;497.63;;
12577;SDS011;6354;51.026;8.968;2022-11-15T10:55:25;1999.90;;;563.93;;
12577;SDS011;6354;51.026;8.968;2022-11-15T10:57:57;1962.63;;;417.63;;
12577;SDS011;6354;51.026;8.968;2022-11-15T11:00:31;1999.90;;;666.33;;
12577;SDS011;6354;51.026;8.968;2022-11-15T11:03:03;1999.90;;;580.80;;
12577;SDS011;6354;51.026;8.968;2022-11-15T11:05:34;1999.90;;;560.93;;
12577;SDS011;6354;51.026;8.968;2022-11-15T11:08:19;1999.90;;;504.90;;
12577;SDS011;6354;51.026;8.968;2022-11-15T11:10:53;1645.67;;;405.60;;
12577;SDS011;6354;51.026;8.968;2022-11-15T11:13:30;1922.57;;;461.40;;
12577;SDS011;6354;51.026;8.968;2022-11-15T11:16:06;1999.90;;;657.97;;
12577;SDS011;6354;51.026;8.968;2022-11-15T11:18:47;1877.40;;;454.77;;
12577;SDS011;6354;51.026;8.968;2022-11-15T11:21:25;1999.90;;;578.00;;
12577;SDS011;6354;51.026;8.968;2022-11-15T11:24:07;1999.90;;;508.20;;
12577;SDS011;6354;51.026;8.968;2022-11-15T11:26:42;1918.50;;;445.10;;
12577;SDS011;6354;51.026;8.968;2022-11-15T11:29:26;1999.90;;;536.13;;
12577;SDS011;6354;51.026;8.968;2022-11-15T11:32:07;1999.90;;;549.37;;
12577;SDS011;6354;51.026;8.968;2022-11-15T11:34:54;1999.90;;;559.43;;
12577;SDS011;6354;51.026;8.968;2022-11-15T11:37:30;1999.90;;;695.20;;
12577;SDS011;6354;51.026;8.968;2022-11-15T11:40:10;1999.90;;;531.30;;
12577;SDS011;6354;51.026;8.968;2022-11-15T11:42:48;1999.90;;;610.43;;
12577;SDS011;6354;51.026;8.968;2022-11-15T11:45:28;1999.90;;;710.90;;
12577;SDS011;6354;51.026;8.968;2022-11-15T11:48:13;1999.90;;;561.93;;
12577;SDS011;6354;51.026;8.968;2022-11-15T11:50:44;1999.90;;;797.40;;
12577;SDS011;6354;51.026;8.968;2022-11-15T11:53:13;1878.43;;;397.10;;
12577;SDS011;6354;51.026;8.968;2022-11-15T11:55:51;1999.90;;;530.97;;
12577;SDS011;6354;51.026;8.968;2022-11-15T11:58:22;1999.90;;;753.23;;
12577;SDS011;6354;51.026;8.968;2022-11-15T12:00:59;1999.90;;;520.63;;
12577;SDS011;6354;51.026;8.968;2022-11-15T12:03:39;1999.90;;;526.10;;
12577;SDS011;6354;51.026;8.968;2022-11-15T12:06:14;1999.90;;;674.17;;
12577;SDS011;6354;51.026;8.968;2022-11-15T12:08:52;1999.90;;;837.83;;
12577;SDS011;6354;51.026;8.968;2022-11-15T12:11:27;1999.90;;;596.03;;
12577;SDS011;6354;51.026;8.968;2022-11-15T12:13:59;1999.90;;;637.97;;
12577;SDS011;6354;51.026;8.968;2022-11-15T12:16:29;1999.90;;;666.57;;
12577;SDS011;6354;51.026;8.968;2022-11-15T12:18:59;1999.90;;;674.33;;
12577;SDS011;6354;51.026;8.968;2022-11-15T12:21:32;1999.90;;;713.30;;
12577;SDS011;6354;51.026;8.968;2022-11-15T12:24:07;1966.60;;;486.27;;
12577;SDS011;6354;51.026;8.968;2022-11-15T12:26:42;1999.90;;;580.00;;
12577;SDS011;6354;51.026;8.968;2022-11-15T12:29:16;1949.43;;;507.53;;
12577;SDS011;6354;51.026;8.968;2022-11-15T12:31:50;1999.90;;;587.47;;
12577;SDS011;6354;51.026;8.968;2022-11-15T12:34:41;1999.90;;;754.03;;
12577;SDS011;6354;51.026;8.968;2022-11-15T12:40:20;1999.90;;;501.63;;
12577;SDS011;6354;51.026;8.968;2022-11-15T12:42:59;1999.90;;;563.50;;
12577;SDS011;6354;51.026;8.968;2022-11-15T12:45:33;1999.90;;;664.17;;
12577;SDS011;6354;51.026;8.968;2022-11-15T12:57:30;1999.90;;;513.77;;
12577;SDS011;6354;51.026;8.968;2022-11-15T13:03:24;1999.90;;;645.17;;
12577;SDS011;6354;51.026;8.968;2022-11-15T13:06:02;1821.93;;;482.40;;
12577;SDS011;6354;51.026;8.968;2022-11-15T13:08:36;1999.90;;;677.07;;
12577;SDS011;6354;51.026;8.968;2022-11-15T13:11:41;1999.90;;;556.30;;
12577;SDS011;6354;51.026;8.968;2022-11-15T13:20:18;1999.90;;;560.37;;
12577;SDS011;6354;51.026;8.968;2022-11-15T13:22:48;1999.90;;;484.60;;
12577;SDS011;6354;51.026;8.968;2022-11-15T13:28:20;1999.90;;;620.77;;
12577;SDS011;6354;51.026;8.968;2022-11-15T13:30:53;1999.90;;;473.37;;
12577;SDS011;6354;51.026;8.968;2022-11-15T13:33:24;1999.90;;;664.10;;
12577;SDS011;6354;51.026;8.968;2022-11-15T13:36:01;1999.90;;;542.30;;
12577;SDS011;6354;51.026;8.968;2022-11-15T13:38:32;1999.90;;;583.17;;
12577;SDS011;6354;51.026;8.968;2022-11-15T13:41:10;1829.37;;;459.43;;
12577;SDS011;6354;51.026;8.968;2022-11-15T13:43:44;1549.83;;;412.00;;
12577;SDS011;6354;51.026;8.968;2022-11-15T13:46:16;1999.90;;;615.47;;
12577;SDS011;6354;51.026;8.968;2022-11-15T13:48:45;1999.90;;;487.40;;
12577;SDS011;6354;51.026;8.968;2022-11-15T13:51:16;1999.90;;;574.40;;
12577;SDS011;6354;51.026;8.968;2022-11-15T13:53:48;1999.90;;;590.43;;
12577;SDS011;6354;51.026;8.968;2022-11-15T13:56:19;1999.90;;;520.27;;
12577;SDS011;6354;51.026;8.968;2022-11-15T13:58:48;1824.33;;;390.20;;
12577;SDS011;6354;51.026;8.968;2022-11-15T14:01:18;1217.77;;;283.90;;
12577;SDS011;6354;51.026;8.968;2022-11-15T14:03:49;1999.90;;;587.93;;
12577;SDS011;6354;51.026;8.968;2022-11-15T14:06:20;1999.90;;;634.57;;
12577;SDS011;6354;51.026;8.968;2022-11-15T14:08:58;1999.90;;;483.77;;
12577;SDS011;6354;51.026;8.968;2022-11-15T14:11:28;1882.47;;;472.60;;
12577;SDS011;6354;51.026;8.968;2022-11-15T14:14:03;1887.80;;;445.07;;
12577;SDS011;6354;51.026;8.968;2022-11-15T14:16:41;1834.57;;;466.57;;
12577;SDS011;6354;51.026;8.968;2022-11-15T14:19:11;1699.67;;;355.70;;
12577;SDS011;6354;51.026;8.968;2022-11-15T14:22:13;1999.90;;;638.93;;
12577;SDS011;6354;51.026;8.968;2022-11-15T14:24:45;1710.53;;;424.77;;
12577;SDS011;6354;51.026;8.968;2022-11-15T14:27:21;1932.93;;;446.93;;
12577;SDS011;6354;51.026;8.968;2022-11-15T14:29:50;1999.90;;;490.60;;
12577;SDS011;6354;51.026;8.968;2022-11-15T14:32:21;1991.07;;;482.73;;
12577;SDS011;6354;51.026;8.968;2022-11-15T14:34:54;1755.17;;;406.53;;
12577;SDS011;6354;51.026;8.968;2022-11-15T14:37:24;1898.13;;;460.20;;
12577;SDS011;6354;51.026;8.968;2022-11-15T14:39:53;1868.67;;;382.13;;
12577;SDS011;6354;51.026;8.968;2022-11-15T14:42:22;1723.93;;;359.33;;
12577;SDS011;6354;51.026;8.968;2022-11-15T14:44:51;1261.83;;;263.43;;
12577;SDS011;6354;51.026;8.968;2022-11-15T14:47:20;1215.43;;;354.53;;
12577;SDS011;6354;51.026;8.968;2022-11-15T14:49:48;1386.43;;;295.93;;
12577;SDS011;6354;51.026;8.968;2022-11-15T14:52:24;1564.07;;;394.03;;
12577;SDS011;6354;51.026;8.968;2022-11-15T14:54:58;1280.97;;;311.97;;
12577;SDS011;6354;51.026;8.968;2022-11-15T14:57:27;1607.07;;;384.43;;
12577;SDS011;6354;51.026;8.968;2022-11-15T14:59:56;1521.70;;;378.80;;
12577;SDS011;6354;51.026;8.968;2022-11-15T15:02:26;1644.50;;;454.40;;